sensor_id;sensor_type;location;lat;lon;timestamp;pressure;altitude;pressure_sealevel;temperature;humidity
43488;BME280;29078;41.932;25.554;2024-01-27T00:00:36;100126.94;;;6.35;47.31
43488;BME280;29078;41.932;25.554;2024-01-27T00:03:01;100129.41;;;6.37;47.12
43488;BME280;29078;41.932;25.554;2024-01-27T00:05:28;100120.16;;;6.33;47.39
43488;BME280;29078;41.932;25.554;2024-01-27T00:07:53;100127.88;;;6.34;47.20
43488;BME280;29078;41.932;25.554;2024-01-27T00:10:18;100133.69;;;6.38;47.90
43488;BME280;29078;41.932;25.554;2024-01-27T00:12:43;100126.78;;;6.37;47.90
43488;BME280;29078;41.932;25.554;2024-01-27T00:15:09;100125.81;;;6.38;47.52
43488;BME280;29078;41.932;25.554;2024-01-27T00:17:34;100120.44;;;6.40;47.66
43488;BME280;29078;41.932;25.554;2024-01-27T00:20:00;100121.53;;;6.37;47.46
43488;BME280;29078;41.932;25.554;2024-01-27T00:22:26;100125.28;;;6.34;47.81
43488;BME280;29078;41.932;25.554;2024-01-27T00:24:51;100125.00;;;6.37;47.95
43488;BME280;29078;41.932;25.554;2024-01-27T00:27:16;100122.09;;;6.41;47.32
43488;BME280;29078;41.932;25.554;2024-01-27T00:29:42;100127.34;;;6.41;47.50
43488;BME280;29078;41.932;25.554;2024-01-27T00:32:07;100125.13;;;6.36;47.58
43488;BME280;29078;41.932;25.554;2024-01-27T00:34:32;100132.31;;;6.34;47.32
43488;BME280;29078;41.932;25.554;2024-01-27T00:36:58;100136.44;;;6.36;48.17
43488;BME280;29078;41.932;25.554;2024-01-27T00:39:23;100145.16;;;6.37;47.44
43488;BME280;29078;41.932;25.554;2024-01-27T00:41:48;100138.66;;;6.31;47.75
43488;BME280;29078;41.932;25.554;2024-01-27T00:44:14;100131.88;;;6.29;47.43
43488;BME280;29078;41.932;25.554;2024-01-27T00:46:39;100135.19;;;6.31;47.66
43488;BME280;29078;41.932;25.554;2024-01-27T00:49:04;100125.13;;;6.26;47.55
43488;BME280;29078;41.932;25.554;2024-01-27T00:51:30;100121.13;;;6.22;47.76
43488;BME280;29078;41.932;25.554;2024-01-27T00:53:55;100113.78;;;6.16;47.35
43488;BME280;29078;41.932;25.554;2024-01-27T00:56:20;100126.50;;;6.21;48.41
43488;BME280;29078;41.932;25.554;2024-01-27T00:58:46;100130.22;;;6.18;47.48
43488;BME280;29078;41.932;25.554;2024-01-27T01:01:11;100117.38;;;6.05;48.65
43488;BME280;29078;41.932;25.554;2024-01-27T01:03:36;100117.66;;;6.12;47.99
43488;BME280;29078;41.932;25.554;2024-01-27T01:06:02;100113.09;;;6.14;47.86
43488;BME280;29078;41.932;25.554;2024-01-27T01:08:28;100120.69;;;6.17;47.75
43488;BME280;29078;41.932;25.554;2024-01-27T01:10:53;100115.31;;;6.19;48.07
43488;BME280;29078;41.932;25.554;2024-01-27T01:13:18;100116.84;;;6.21;47.93
43488;BME280;29078;41.932;25.554;2024-01-27T01:15:44;100109.53;;;6.25;47.98
43488;BME280;29078;41.932;25.554;2024-01-27T01:18:09;100105.25;;;6.24;48.36
43488;BME280;29078;41.932;25.554;2024-01-27T01:20:34;100101.09;;;6.21;48.42
43488;BME280;29078;41.932;25.554;2024-01-27T01:23:01;100097.94;;;6.18;47.65
43488;BME280;29078;41.932;25.554;2024-01-27T01:25:27;100100.00;;;6.14;48.06
43488;BME280;29078;41.932;25.554;2024-01-27T01:27:53;100101.91;;;6.12;48.45
43488;BME280;29078;41.932;25.554;2024-01-27T01:30:18;100089.09;;;6.09;48.01
43488;BME280;29078;41.932;25.554;2024-01-27T01:32:43;100085.50;;;6.10;48.56
43488;BME280;29078;41.932;25.554;2024-01-27T01:35:12;100087.44;;;6.08;48.47
43488;BME280;29078;41.932;25.554;2024-01-27T01:37:37;100078.44;;;6.01;48.36
43488;BME280;29078;41.932;25.554;2024-01-27T01:40:02;100074.56;;;5.95;48.83
43488;BME280;29078;41.932;25.554;2024-01-27T01:42:28;100078.13;;;5.94;48.97
43488;BME280;29078;41.932;25.554;2024-01-27T01:44:54;100071.38;;;5.92;48.99
43488;BME280;29078;41.932;25.554;2024-01-27T01:47:19;100071.59;;;5.89;49.17
43488;BME280;29078;41.932;25.554;2024-01-27T01:49:45;100070.69;;;5.90;48.95
43488;BME280;29078;41.932;25.554;2024-01-27T01:52:10;100072.34;;;5.91;48.87
43488;BME280;29078;41.932;25.554;2024-01-27T01:54:36;100073.84;;;5.93;49.28
43488;BME280;29078;41.932;25.554;2024-01-27T01:57:01;100069.19;;;5.97;48.75
43488;BME280;29078;41.932;25.554;2024-01-27T01:59:27;100070.03;;;5.97;49.08
43488;BME280;29078;41.932;25.554;2024-01-27T02:01:52;100064.78;;;5.97;48.48
43488;BME280;29078;41.932;25.554;2024-01-27T02:04:18;100076.22;;;5.96;48.40
43488;BME280;29078;41.932;25.554;2024-01-27T02:06:43;100066.81;;;5.94;49.06
43488;BME280;29078;41.932;25.554;2024-01-27T02:09:08;100067.78;;;5.93;49.20
43488;BME280;29078;41.932;25.554;2024-01-27T02:11:35;100067.09;;;5.91;49.00
43488;BME280;29078;41.932;25.554;2024-01-27T02:14:00;100061.25;;;5.87;48.41
43488;BME280;29078;41.932;25.554;2024-01-27T02:16:25;100065.44;;;5.90;48.91
43488;BME280;29078;41.932;25.554;2024-01-27T02:18:51;100057.81;;;5.87;49.06
43488;BME280;29078;41.932;25.554;2024-01-27T02:21:16;100065.53;;;5.88;49.27
43488;BME280;29078;41.932;25.554;2024-01-27T02:23:41;100063.19;;;5.85;48.67
43488;BME280;29078;41.932;25.554;2024-01-27T02:26:06;100057.25;;;5.83;49.21
43488;BME280;29078;41.932;25.554;2024-01-27T02:28:32;100050.63;;;5.79;49.57
43488;BME280;29078;41.932;25.554;2024-01-27T02:30:58;100047.19;;;5.79;49.59
43488;BME280;29078;41.932;25.554;2024-01-27T02:33:25;100049.94;;;5.77;49.11
43488;BME280;29078;41.932;25.554;2024-01-27T02:35:50;100041.38;;;5.75;49.10
43488;BME280;29078;41.932;25.554;2024-01-27T02:38:15;100054.34;;;5.77;49.40
43488;BME280;29078;41.932;25.554;2024-01-27T02:40:41;100056.53;;;5.71;49.46
43488;BME280;29078;41.932;25.554;2024-01-27T02:43:06;100048.00;;;5.69;49.68
43488;BME280;29078;41.932;25.554;2024-01-27T02:45:31;100044.81;;;5.66;49.68
43488;BME280;29078;41.932;25.554;2024-01-27T02:47:56;100055.16;;;5.67;49.26
43488;BME280;29078;41.932;25.554;2024-01-27T02:50:22;100067.28;;;5.68;49.75
43488;BME280;29078;41.932;25.554;2024-01-27T02:52:47;100065.38;;;5.70;49.76
43488;BME280;29078;41.932;25.554;2024-01-27T02:55:12;100063.16;;;5.66;49.67
43488;BME280;29078;41.932;25.554;2024-01-27T02:57:37;100064.38;;;5.62;49.49
43488;BME280;29078;41.932;25.554;2024-01-27T03:00:03;100065.75;;;5.56;49.87
43488;BME280;29078;41.932;25.554;2024-01-27T03:02:30;100076.06;;;5.48;50.21
43488;BME280;29078;41.932;25.554;2024-01-27T03:04:55;100075.34;;;5.46;50.04
43488;BME280;29078;41.932;25.554;2024-01-27T03:07:20;100069.28;;;5.46;50.05
43488;BME280;29078;41.932;25.554;2024-01-27T03:09:45;100061.16;;;5.49;50.06
43488;BME280;29078;41.932;25.554;2024-01-27T03:12:11;100060.34;;;5.48;50.03
43488;BME280;29078;41.932;25.554;2024-01-27T03:14:36;100059.63;;;5.46;49.76
43488;BME280;29078;41.932;25.554;2024-01-27T03:17:01;100048.34;;;5.46;50.17
43488;BME280;29078;41.932;25.554;2024-01-27T03:19:27;100052.06;;;5.43;50.33
43488;BME280;29078;41.932;25.554;2024-01-27T03:21:52;100055.75;;;5.40;50.13
43488;BME280;29078;41.932;25.554;2024-01-27T03:24:17;100055.91;;;5.39;50.25
43488;BME280;29078;41.932;25.554;2024-01-27T03:26:43;100051.63;;;5.38;50.17
43488;BME280;29078;41.932;25.554;2024-01-27T03:29:08;100045.69;;;5.36;50.40
43488;BME280;29078;41.932;25.554;2024-01-27T03:31:34;100040.72;;;5.33;50.46
43488;BME280;29078;41.932;25.554;2024-01-27T03:33:59;100028.59;;;5.32;50.33
43488;BME280;29078;41.932;25.554;2024-01-27T03:36:25;100025.28;;;5.30;50.74
43488;BME280;29078;41.932;25.554;2024-01-27T03:38:50;100020.16;;;5.28;50.75
43488;BME280;29078;41.932;25.554;2024-01-27T03:41:15;100019.34;;;5.28;50.75
43488;BME280;29078;41.932;25.554;2024-01-27T03:43:41;100028.03;;;5.28;50.23
43488;BME280;29078;41.932;25.554;2024-01-27T03:46:06;100018.91;;;5.23;50.37
43488;BME280;29078;41.932;25.554;2024-01-27T03:48:31;100025.09;;;5.22;50.86
43488;BME280;29078;41.932;25.554;2024-01-27T03:50:57;100017.25;;;5.22;50.72
43488;BME280;29078;41.932;25.554;2024-01-27T03:53:22;100016.53;;;5.20;50.57
43488;BME280;29078;41.932;25.554;2024-01-27T03:55:47;100021.06;;;5.18;50.31
43488;BME280;29078;41.932;25.554;2024-01-27T03:58:13;100029.19;;;5.15;50.49
43488;BME280;29078;41.932;25.554;2024-01-27T04:00:38;100026.00;;;5.11;50.47
43488;BME280;29078;41.932;25.554;2024-01-27T04:03:03;100028.03;;;5.07;50.52
43488;BME280;29078;41.932;25.554;2024-01-27T04:05:29;100020.19;;;5.07;50.56
43488;BME280;29078;41.932;25.554;2024-01-27T04:07:55;100016.06;;;5.05;50.46
43488;BME280;29078;41.932;25.554;2024-01-27T04:10:21;100017.00;;;5.04;50.52
43488;BME280;29078;41.932;25.554;2024-01-27T04:12:46;100030.91;;;5.04;50.62
43488;BME280;29078;41.932;25.554;2024-01-27T04:15:12;100032.84;;;5.02;50.50
43488;BME280;29078;41.932;25.554;2024-01-27T04:17:37;100040.00;;;5.00;50.61
43488;BME280;29078;41.932;25.554;2024-01-27T04:20:03;100031.31;;;5.00;50.57
43488;BME280;29078;41.932;25.554;2024-01-27T04:22:29;100031.56;;;4.97;50.42
43488;BME280;29078;41.932;25.554;2024-01-27T04:24:55;100027.44;;;4.94;50.60
43488;BME280;29078;41.932;25.554;2024-01-27T04:27:20;100026.72;;;4.92;50.57
43488;BME280;29078;41.932;25.554;2024-01-27T04:29:45;100020.81;;;4.90;50.77
43488;BME280;29078;41.932;25.554;2024-01-27T04:32:11;100012.38;;;4.87;50.72
43488;BME280;29078;41.932;25.554;2024-01-27T04:34:37;99995.84;;;4.86;50.86
43488;BME280;29078;41.932;25.554;2024-01-27T04:37:03;100007.03;;;4.88;50.81
43488;BME280;29078;41.932;25.554;2024-01-27T04:39:28;99999.16;;;4.88;51.18
43488;BME280;29078;41.932;25.554;2024-01-27T04:41:54;100003.72;;;4.86;50.92
43488;BME280;29078;41.932;25.554;2024-01-27T04:44:19;100002.03;;;4.85;50.99
43488;BME280;29078;41.932;25.554;2024-01-27T04:46:45;100004.34;;;4.78;50.64
43488;BME280;29078;41.932;25.554;2024-01-27T04:49:10;99998.16;;;4.79;51.02
43488;BME280;29078;41.932;25.554;2024-01-27T04:51:36;100005.06;;;4.81;50.81
43488;BME280;29078;41.932;25.554;2024-01-27T04:54:01;99994.97;;;4.76;51.06
43488;BME280;29078;41.932;25.554;2024-01-27T04:56:27;99993.19;;;4.76;50.94
43488;BME280;29078;41.932;25.554;2024-01-27T04:58:52;99992.22;;;4.77;51.06
43488;BME280;29078;41.932;25.554;2024-01-27T05:01:17;99999.81;;;4.81;51.27
43488;BME280;29078;41.932;25.554;2024-01-27T05:03:43;99997.06;;;4.82;51.10
43488;BME280;29078;41.932;25.554;2024-01-27T05:06:08;99986.75;;;4.81;50.92
43488;BME280;29078;41.932;25.554;2024-01-27T05:08:34;99983.03;;;4.83;50.92
43488;BME280;29078;41.932;25.554;2024-01-27T05:11:00;99992.53;;;4.84;51.02
43488;BME280;29078;41.932;25.554;2024-01-27T05:13:25;99989.94;;;4.84;50.94
43488;BME280;29078;41.932;25.554;2024-01-27T05:15:50;99999.31;;;4.87;50.86
43488;BME280;29078;41.932;25.554;2024-01-27T05:18:16;99981.81;;;4.87;51.23
43488;BME280;29078;41.932;25.554;2024-01-27T05:20:41;99981.00;;;4.87;51.05
43488;BME280;29078;41.932;25.554;2024-01-27T05:23:06;99981.13;;;4.85;51.05
43488;BME280;29078;41.932;25.554;2024-01-27T05:25:32;99987.44;;;4.83;51.04
43488;BME280;29078;41.932;25.554;2024-01-27T05:27:58;99992.53;;;4.84;51.02
43488;BME280;29078;41.932;25.554;2024-01-27T05:30:23;99991.16;;;4.80;51.00
43488;BME280;29078;41.932;25.554;2024-01-27T05:32:48;99986.75;;;4.81;51.19
43488;BME280;29078;41.932;25.554;2024-01-27T05:35:13;99979.16;;;4.77;51.46
43488;BME280;29078;41.932;25.554;2024-01-27T05:37:39;99980.38;;;4.73;51.44
43488;BME280;29078;41.932;25.554;2024-01-27T05:40:05;99981.47;;;4.71;51.54
43488;BME280;29078;41.932;25.554;2024-01-27T05:42:31;99987.97;;;4.76;51.50
43488;BME280;29078;41.932;25.554;2024-01-27T05:44:56;99980.00;;;4.78;51.54
43488;BME280;29078;41.932;25.554;2024-01-27T05:47:21;99980.56;;;4.82;51.69
43488;BME280;29078;41.932;25.554;2024-01-27T05:49:46;99979.47;;;4.84;51.61
43488;BME280;29078;41.932;25.554;2024-01-27T05:52:12;99971.47;;;4.86;51.04
43488;BME280;29078;41.932;25.554;2024-01-27T05:54:39;99965.03;;;4.90;50.89
43488;BME280;29078;41.932;25.554;2024-01-27T05:57:04;99954.16;;;4.94;50.43
43488;BME280;29078;41.932;25.554;2024-01-27T05:59:30;99956.78;;;4.94;50.52
43488;BME280;29078;41.932;25.554;2024-01-27T06:01:55;99961.75;;;4.97;50.34
43488;BME280;29078;41.932;25.554;2024-01-27T06:04:22;99968.38;;;5.01;50.27
43488;BME280;29078;41.932;25.554;2024-01-27T06:06:48;99967.28;;;5.04;50.00
43488;BME280;29078;41.932;25.554;2024-01-27T06:09:13;99973.34;;;5.04;50.01
43488;BME280;29078;41.932;25.554;2024-01-27T06:11:39;99965.38;;;5.06;50.03
43488;BME280;29078;41.932;25.554;2024-01-27T06:14:04;99975.00;;;5.05;49.83
43488;BME280;29078;41.932;25.554;2024-01-27T06:16:29;99978.31;;;5.07;50.24
43488;BME280;29078;41.932;25.554;2024-01-27T06:18:55;99984.13;;;5.11;50.05
43488;BME280;29078;41.932;25.554;2024-01-27T06:21:21;99990.19;;;5.11;50.17
43488;BME280;29078;41.932;25.554;2024-01-27T06:23:46;99996.81;;;5.16;49.81
43488;BME280;29078;41.932;25.554;2024-01-27T06:26:12;99999.69;;;5.13;49.82
43488;BME280;29078;41.932;25.554;2024-01-27T06:28:38;99999.56;;;5.14;50.39
43488;BME280;29078;41.932;25.554;2024-01-27T06:31:03;99999.16;;;5.19;50.04
43488;BME280;29078;41.932;25.554;2024-01-27T06:33:29;100000.59;;;5.23;49.98
43488;BME280;29078;41.932;25.554;2024-01-27T06:35:54;99991.38;;;5.28;49.71
43488;BME280;29078;41.932;25.554;2024-01-27T06:38:19;99997.16;;;5.32;49.90
43488;BME280;29078;41.932;25.554;2024-01-27T06:40:45;100006.28;;;5.37;49.81
43488;BME280;29078;41.932;25.554;2024-01-27T06:43:12;99995.53;;;5.40;49.70
43488;BME280;29078;41.932;25.554;2024-01-27T06:45:37;100015.38;;;5.43;50.00
43488;BME280;29078;41.932;25.554;2024-01-27T06:48:03;100013.59;;;5.43;49.06
43488;BME280;29078;41.932;25.554;2024-01-27T06:50:28;100018.84;;;5.43;49.15
43488;BME280;29078;41.932;25.554;2024-01-27T06:52:53;100017.88;;;5.45;49.46
43488;BME280;29078;41.932;25.554;2024-01-27T06:55:18;100024.63;;;5.47;49.64
43488;BME280;29078;41.932;25.554;2024-01-27T06:57:44;100026.16;;;5.50;49.32
43488;BME280;29078;41.932;25.554;2024-01-27T07:00:09;100025.63;;;5.56;49.38
43488;BME280;29078;41.932;25.554;2024-01-27T07:02:39;100029.22;;;5.64;49.73
43488;BME280;29078;41.932;25.554;2024-01-27T07:05:04;100026.19;;;5.69;49.41
43488;BME280;29078;41.932;25.554;2024-01-27T07:07:30;100033.66;;;5.73;49.83
43488;BME280;29078;41.932;25.554;2024-01-27T07:09:58;100044.28;;;5.72;49.25
43488;BME280;29078;41.932;25.554;2024-01-27T07:12:23;100047.28;;;5.67;50.02
43488;BME280;29078;41.932;25.554;2024-01-27T07:14:48;100040.53;;;5.65;50.61
43488;BME280;29078;41.932;25.554;2024-01-27T07:17:14;100041.91;;;5.59;50.67
43488;BME280;29078;41.932;25.554;2024-01-27T07:19:39;100039.41;;;5.58;51.09
43488;BME280;29078;41.932;25.554;2024-01-27T07:22:04;100032.78;;;5.54;51.32
43488;BME280;29078;41.932;25.554;2024-01-27T07:24:30;100036.22;;;5.54;51.78
43488;BME280;29078;41.932;25.554;2024-01-27T07:26:55;100033.59;;;5.54;52.41
43488;BME280;29078;41.932;25.554;2024-01-27T07:29:21;100031.81;;;5.55;52.18
43488;BME280;29078;41.932;25.554;2024-01-27T07:31:46;100028.38;;;5.54;52.33
43488;BME280;29078;41.932;25.554;2024-01-27T07:34:12;100036.09;;;5.56;53.01
43488;BME280;29078;41.932;25.554;2024-01-27T07:36:37;100034.16;;;5.58;53.35
43488;BME280;29078;41.932;25.554;2024-01-27T07:39:03;100038.44;;;5.59;54.23
43488;BME280;29078;41.932;25.554;2024-01-27T07:41:30;100044.38;;;5.61;54.30
43488;BME280;29078;41.932;25.554;2024-01-27T07:43:55;100034.72;;;5.61;54.40
43488;BME280;29078;41.932;25.554;2024-01-27T07:46:20;100045.06;;;5.63;54.69
43488;BME280;29078;41.932;25.554;2024-01-27T07:48:47;100038.88;;;5.64;54.44
43488;BME280;29078;41.932;25.554;2024-01-27T07:51:13;100032.41;;;5.68;54.33
43488;BME280;29078;41.932;25.554;2024-01-27T07:53:38;100035.44;;;5.73;54.27
43488;BME280;29078;41.932;25.554;2024-01-27T07:56:03;100032.00;;;5.72;53.99
43488;BME280;29078;41.932;25.554;2024-01-27T07:58:29;100026.50;;;5.75;54.87
43488;BME280;29078;41.932;25.554;2024-01-27T08:00:54;100026.22;;;5.79;56.50
43488;BME280;29078;41.932;25.554;2024-01-27T08:03:19;100018.78;;;5.84;55.35
43488;BME280;29078;41.932;25.554;2024-01-27T08:05:45;100022.91;;;5.86;56.38
43488;BME280;29078;41.932;25.554;2024-01-27T08:08:10;100019.09;;;5.90;57.56
43488;BME280;29078;41.932;25.554;2024-01-27T08:10:35;100016.91;;;5.95;56.21
43488;BME280;29078;41.932;25.554;2024-01-27T08:13:01;100007.25;;;5.96;55.63
43488;BME280;29078;41.932;25.554;2024-01-27T08:15:27;100013.75;;;6.01;57.98
43488;BME280;29078;41.932;25.554;2024-01-27T08:17:52;100015.13;;;6.05;56.30
43488;BME280;29078;41.932;25.554;2024-01-27T08:20:17;100008.66;;;6.10;57.33
43488;BME280;29078;41.932;25.554;2024-01-27T08:22:43;99997.88;;;6.13;57.44
43488;BME280;29078;41.932;25.554;2024-01-27T08:25:08;99999.53;;;6.14;57.60
43488;BME280;29078;41.932;25.554;2024-01-27T08:27:34;100006.56;;;6.13;56.77
43488;BME280;29078;41.932;25.554;2024-01-27T08:29:59;99997.88;;;6.13;57.75
43488;BME280;29078;41.932;25.554;2024-01-27T08:32:24;99989.19;;;6.12;56.12
43488;BME280;29078;41.932;25.554;2024-01-27T08:34:49;99987.41;;;6.13;55.44
43488;BME280;29078;41.932;25.554;2024-01-27T08:37:18;99971.94;;;6.10;56.15
43488;BME280;29078;41.932;25.554;2024-01-27T08:39:43;99966.97;;;6.07;58.34
43488;BME280;29078;41.932;25.554;2024-01-27T08:42:09;99956.34;;;6.08;59.03
43488;BME280;29078;41.932;25.554;2024-01-27T08:44:34;99948.22;;;6.11;56.79
43488;BME280;29078;41.932;25.554;2024-01-27T08:47:00;99946.00;;;6.16;58.21
43488;BME280;29078;41.932;25.554;2024-01-27T08:49:25;99941.16;;;6.21;58.21
43488;BME280;29078;41.932;25.554;2024-01-27T08:51:50;99942.69;;;6.24;59.46
43488;BME280;29078;41.932;25.554;2024-01-27T08:54:15;99933.03;;;6.24;58.88
43488;BME280;29078;41.932;25.554;2024-01-27T08:56:41;99923.06;;;6.28;58.54
43488;BME280;29078;41.932;25.554;2024-01-27T08:59:06;99934.78;;;6.33;57.86
43488;BME280;29078;41.932;25.554;2024-01-27T09:01:31;99920.44;;;6.37;57.58
43488;BME280;29078;41.932;25.554;2024-01-27T09:03:57;99925.66;;;6.37;57.86
43488;BME280;29078;41.932;25.554;2024-01-27T09:06:22;99923.44;;;6.43;57.50
43488;BME280;29078;41.932;25.554;2024-01-27T09:08:48;99934.34;;;6.48;59.17
43488;BME280;29078;41.932;25.554;2024-01-27T09:11:13;99925.91;;;6.54;57.91
43488;BME280;29078;41.932;25.554;2024-01-27T09:13:38;99933.19;;;6.60;56.50
43488;BME280;29078;41.932;25.554;2024-01-27T09:16:03;99934.84;;;6.61;58.59
43488;BME280;29078;41.932;25.554;2024-01-27T09:18:29;99949.78;;;6.60;61.39
43488;BME280;29078;41.932;25.554;2024-01-27T09:20:54;99944.66;;;6.59;59.25
43488;BME280;29078;41.932;25.554;2024-01-27T09:23:19;99955.44;;;6.56;57.81
43488;BME280;29078;41.932;25.554;2024-01-27T09:25:45;99946.22;;;6.52;61.70
43488;BME280;29078;41.932;25.554;2024-01-27T09:28:10;99949.50;;;6.54;61.26
43488;BME280;29078;41.932;25.554;2024-01-27T09:30:36;99964.72;;;6.50;61.52
43488;BME280;29078;41.932;25.554;2024-01-27T09:33:02;99944.41;;;6.52;60.68
43488;BME280;29078;41.932;25.554;2024-01-27T09:35:27;99957.25;;;6.55;59.89
43488;BME280;29078;41.932;25.554;2024-01-27T09:37:52;99961.53;;;6.56;61.85
43488;BME280;29078;41.932;25.554;2024-01-27T09:40:18;99961.38;;;6.58;61.74
43488;BME280;29078;41.932;25.554;2024-01-27T09:42:49;99956.00;;;6.59;61.42
43488;BME280;29078;41.932;25.554;2024-01-27T09:45:15;99942.72;;;6.61;61.65
43488;BME280;29078;41.932;25.554;2024-01-27T09:47:41;99948.66;;;6.63;61.73
43488;BME280;29078;41.932;25.554;2024-01-27T09:50:07;99938.16;;;6.63;61.55
43488;BME280;29078;41.932;25.554;2024-01-27T09:52:33;99953.91;;;6.63;60.83
43488;BME280;29078;41.932;25.554;2024-01-27T09:54:59;99930.28;;;6.63;61.44
43488;BME280;29078;41.932;25.554;2024-01-27T09:57:24;99926.84;;;6.62;58.70
43488;BME280;29078;41.932;25.554;2024-01-27T09:59:49;99937.34;;;6.62;61.05
43488;BME280;29078;41.932;25.554;2024-01-27T10:02:15;99937.19;;;6.64;60.60
43488;BME280;29078;41.932;25.554;2024-01-27T10:04:42;99935.41;;;6.64;61.70
43488;BME280;29078;41.932;25.554;2024-01-27T10:07:09;99932.38;;;6.69;61.25
43488;BME280;29078;41.932;25.554;2024-01-27T10:09:34;99932.09;;;6.72;61.29
43488;BME280;29078;41.932;25.554;2024-01-27T10:12:00;99921.31;;;6.75;61.38
43488;BME280;29078;41.932;25.554;2024-01-27T10:14:26;99926.13;;;6.80;61.43
43488;BME280;29078;41.932;25.554;2024-01-27T10:16:51;99922.09;;;6.85;62.58
43488;BME280;29078;41.932;25.554;2024-01-27T10:19:17;99913.25;;;6.86;62.31
43488;BME280;29078;41.932;25.554;2024-01-27T10:21:43;99910.88;;;6.93;59.30
43488;BME280;29078;41.932;25.554;2024-01-27T10:24:08;99910.44;;;6.97;61.44
43488;BME280;29078;41.932;25.554;2024-01-27T10:26:34;99902.09;;;7.02;60.36
43488;BME280;29078;41.932;25.554;2024-01-27T10:29:00;99905.13;;;7.07;61.57
43488;BME280;29078;41.932;25.554;2024-01-27T10:31:27;99895.00;;;7.12;59.39
43488;BME280;29078;41.932;25.554;2024-01-27T10:33:53;99887.66;;;7.16;61.16
43488;BME280;29078;41.932;25.554;2024-01-27T10:36:18;99880.16;;;7.21;61.54
43488;BME280;29078;41.932;25.554;2024-01-27T10:38:44;99880.53;;;7.26;62.47
43488;BME280;29078;41.932;25.554;2024-01-27T10:41:09;99870.28;;;7.32;62.60
43488;BME280;29078;41.932;25.554;2024-01-27T10:43:38;99871.31;;;7.40;59.96
43488;BME280;29078;41.932;25.554;2024-01-27T10:46:07;99861.75;;;7.48;61.13
43488;BME280;29078;41.932;25.554;2024-01-27T10:48:35;99850.69;;;7.62;61.18
43488;BME280;29078;41.932;25.554;2024-01-27T10:51:08;99860.38;;;7.80;59.63
43488;BME280;29078;41.932;25.554;2024-01-27T10:53:35;99863.47;;;8.01;57.91
43488;BME280;29078;41.932;25.554;2024-01-27T10:56:00;99860.44;;;8.14;57.38
43488;BME280;29078;41.932;25.554;2024-01-27T10:58:26;99860.41;;;8.32;56.54
43488;BME280;29078;41.932;25.554;2024-01-27T11:00:53;99861.84;;;8.44;57.35
43488;BME280;29078;41.932;25.554;2024-01-27T11:03:19;99855.63;;;8.53;56.20
43488;BME280;29078;41.932;25.554;2024-01-27T11:05:46;99859.59;;;8.57;56.59
43488;BME280;29078;41.932;25.554;2024-01-27T11:08:12;99858.81;;;8.65;56.28
43488;BME280;29078;41.932;25.554;2024-01-27T11:10:38;99865.41;;;8.69;56.16
43488;BME280;29078;41.932;25.554;2024-01-27T11:13:04;99864.41;;;8.70;56.52
43488;BME280;29078;41.932;25.554;2024-01-27T11:15:29;99864.25;;;8.71;55.84
43488;BME280;29078;41.932;25.554;2024-01-27T11:17:58;99851.25;;;8.70;56.02
43488;BME280;29078;41.932;25.554;2024-01-27T11:20:32;99850.31;;;8.79;55.43
43488;BME280;29078;41.932;25.554;2024-01-27T11:23:11;99852.66;;;8.90;56.21
43488;BME280;29078;41.932;25.554;2024-01-27T11:25:37;99841.53;;;9.04;55.61
43488;BME280;29078;41.932;25.554;2024-01-27T11:28:10;99844.34;;;9.11;53.71
43488;BME280;29078;41.932;25.554;2024-01-27T11:30:36;99856.03;;;9.16;53.60
43488;BME280;29078;41.932;25.554;2024-01-27T11:33:04;99833.81;;;9.19;52.89
43488;BME280;29078;41.932;25.554;2024-01-27T11:35:30;99847.66;;;9.21;51.32
43488;BME280;29078;41.932;25.554;2024-01-27T11:37:55;99851.28;;;9.28;51.92
43488;BME280;29078;41.932;25.554;2024-01-27T11:40:21;99850.16;;;9.31;51.64
43488;BME280;29078;41.932;25.554;2024-01-27T11:43:01;99849.16;;;9.32;50.87
43488;BME280;29078;41.932;25.554;2024-01-27T11:45:27;99840.25;;;9.33;50.33
43488;BME280;29078;41.932;25.554;2024-01-27T11:47:57;99846.03;;;9.36;49.64
43488;BME280;29078;41.932;25.554;2024-01-27T11:50:22;99858.06;;;9.39;49.81
43488;BME280;29078;41.932;25.554;2024-01-27T11:52:48;99845.53;;;9.41;50.16
43488;BME280;29078;41.932;25.554;2024-01-27T11:55:13;99860.38;;;9.50;49.88
43488;BME280;29078;41.932;25.554;2024-01-27T11:57:40;99859.06;;;9.54;48.96
43488;BME280;29078;41.932;25.554;2024-01-27T12:00:06;99860.88;;;9.62;49.86
43488;BME280;29078;41.932;25.554;2024-01-27T12:02:31;99855.44;;;9.63;49.96
43488;BME280;29078;41.932;25.554;2024-01-27T12:04:56;99860.22;;;9.60;49.38
43488;BME280;29078;41.932;25.554;2024-01-27T12:07:22;99861.88;;;9.61;49.86
43488;BME280;29078;41.932;25.554;2024-01-27T12:09:50;99870.44;;;9.54;49.44
43488;BME280;29078;41.932;25.554;2024-01-27T12:12:15;99882.44;;;9.49;49.62
43488;BME280;29078;41.932;25.554;2024-01-27T12:14:45;99876.03;;;9.51;50.14
43488;BME280;29078;41.932;25.554;2024-01-27T12:17:11;99886.88;;;9.40;49.22
43488;BME280;29078;41.932;25.554;2024-01-27T12:19:37;99882.13;;;9.44;49.18
43488;BME280;29078;41.932;25.554;2024-01-27T12:22:03;99880.31;;;9.44;49.41
43488;BME280;29078;41.932;25.554;2024-01-27T12:24:28;99883.44;;;9.48;49.40
43488;BME280;29078;41.932;25.554;2024-01-27T12:26:55;99887.06;;;9.47;50.03
43488;BME280;29078;41.932;25.554;2024-01-27T12:29:22;99892.66;;;9.44;50.25
43488;BME280;29078;41.932;25.554;2024-01-27T12:31:47;99891.50;;;9.38;49.89
43488;BME280;29078;41.932;25.554;2024-01-27T12:34:13;99883.91;;;9.35;49.99
43488;BME280;29078;41.932;25.554;2024-01-27T12:36:41;99882.94;;;9.36;49.84
43488;BME280;29078;41.932;25.554;2024-01-27T12:39:07;99889.66;;;9.31;50.15
43488;BME280;29078;41.932;25.554;2024-01-27T12:41:33;99892.31;;;9.31;50.13
43488;BME280;29078;41.932;25.554;2024-01-27T12:43:59;99887.69;;;9.33;50.29
43488;BME280;29078;41.932;25.554;2024-01-27T12:46:24;99894.94;;;9.31;50.84